createdAt,value
2023-02-24T00:01:51.828Z,79.45
2023-02-24T00:04:26.251Z,80.16
2023-02-24T00:07:00.104Z,80.38
2023-02-24T00:09:34.637Z,80.85
2023-02-24T00:12:09.188Z,80.53
2023-02-24T00:14:47.607Z,80.24
2023-02-24T00:17:20.849Z,80.07
2023-02-24T00:19:53.910Z,80.19
2023-02-24T00:22:26.819Z,80.12
2023-02-24T00:25:01.598Z,80.41
2023-02-24T00:27:34.471Z,80.58
2023-02-24T00:30:11.315Z,80.83
2023-02-24T00:32:46.056Z,80.64
2023-02-24T00:35:20.618Z,81.03
2023-02-24T00:37:54.700Z,82.61
2023-02-24T00:40:30.981Z,82.84
2023-02-24T00:43:08.409Z,82.93
2023-02-24T00:45:42.408Z,83.73
2023-02-24T00:48:21.309Z,84.58
2023-02-24T00:50:55.303Z,84.79
2023-02-24T00:53:30.318Z,84.63
2023-02-24T00:56:07.700Z,84.46
2023-02-24T00:58:43.274Z,83.88
2023-02-24T01:01:18.952Z,85.07
2023-02-24T01:03:54.914Z,86.00
2023-02-24T01:06:29.584Z,86.33
2023-02-24T01:09:02.609Z,86.30
2023-02-24T01:11:58.089Z,85.93
2023-02-24T01:14:32.559Z,85.59
2023-02-24T01:17:05.748Z,85.81
2023-02-24T01:19:39.205Z,86.26
2023-02-24T01:22:14.813Z,86.27
2023-02-24T01:24:47.890Z,86.06
2023-02-24T01:27:21.103Z,85.86
2023-02-24T01:29:54.769Z,85.50
2023-02-24T01:32:32.232Z,85.29
2023-02-24T01:35:06.399Z,85.25
2023-02-24T01:37:39.995Z,85.46
2023-02-24T01:40:21.846Z,85.71
2023-02-24T01:42:56.972Z,85.96
2023-02-24T01:45:30.182Z,85.52
2023-02-24T01:48:05.480Z,84.98
2023-02-24T01:50:40.149Z,84.66
2023-02-24T01:53:15.869Z,84.96
2023-02-24T01:55:50.177Z,85.33
2023-02-24T01:58:28.018Z,85.46
2023-02-24T02:01:08.923Z,85.09
2023-02-24T02:03:43.325Z,84.87
2023-02-24T02:06:18.538Z,85.30
2023-02-24T02:08:51.580Z,85.47
2023-02-24T02:11:24.580Z,85.03
2023-02-24T02:14:01.830Z,84.47
2023-02-24T02:16:46.736Z,84.61
2023-02-24T02:19:52.413Z,85.12
2023-02-24T02:22:36.853Z,84.61
2023-02-24T02:25:13.168Z,83.83
2023-02-24T02:27:58.437Z,83.62
2023-02-24T02:31:02.351Z,83.99
2023-02-24T02:34:07.141Z,83.80
2023-02-24T02:36:45.159Z,83.16
2023-02-24T02:39:21.032Z,82.59
2023-02-24T02:41:55.951Z,82.80
2023-02-24T02:44:33.057Z,83.20
2023-02-24T02:47:09.526Z,83.23
2023-02-24T02:49:44.344Z,82.93
2023-02-24T02:52:21.662Z,82.15
2023-02-24T02:54:56.455Z,81.60
2023-02-24T02:57:31.295Z,81.48
2023-02-24T03:00:12.617Z,82.12
2023-02-24T03:02:48.170Z,82.35
2023-02-24T03:05:22.564Z,81.98
2023-02-24T03:07:58.706Z,81.46
2023-02-24T03:10:34.622Z,81.52
2023-02-24T03:13:07.721Z,82.28
2023-02-24T03:15:42.747Z,82.24
2023-02-24T03:18:18.774Z,81.79
2023-02-24T03:20:57.694Z,81.53
2023-02-24T03:23:33.914Z,82.06
2023-02-24T03:26:17.178Z,82.16
2023-02-24T03:28:59.545Z,81.73
2023-02-24T03:31:35.056Z,81.20
2023-02-24T03:34:09.488Z,81.10
2023-02-24T03:36:47.758Z,81.74
2023-02-24T03:39:21.324Z,81.81
2023-02-24T03:42:04.764Z,81.40
2023-02-24T03:44:39.893Z,80.92
2023-02-24T03:47:20.557Z,80.91
2023-02-24T03:49:54.060Z,81.72
2023-02-24T03:52:32.948Z,82.09
2023-02-24T03:55:18.564Z,81.78
2023-02-24T03:58:01.208Z,81.18
2023-02-24T04:00:45.418Z,81.04
2023-02-24T04:03:27.676Z,81.43
2023-02-24T04:06:14.043Z,80.80
2023-02-24T04:09:01.611Z,79.58
2023-02-24T04:11:37.721Z,78.38
2023-02-24T04:14:12.285Z,78.20
2023-02-24T04:16:50.057Z,77.84
2023-02-24T04:19:24.384Z,77.13
2023-02-24T04:21:57.653Z,76.50
2023-02-24T04:24:32.408Z,76.21
2023-02-24T04:27:07.797Z,76.69
2023-02-24T04:29:49.905Z,76.77
2023-02-24T04:32:25.488Z,76.44
2023-02-24T04:35:07.645Z,76.25
2023-02-24T04:37:44.706Z,76.86
2023-02-24T04:40:22.275Z,77.50
2023-02-24T04:42:55.984Z,77.69
